createdAt,value
2018-04-18T00:01:29.771Z,50.60
2018-04-18T00:03:57.378Z,41.37
2018-04-18T00:06:24.986Z,58.67
2018-04-18T00:08:52.634Z,46.20
2018-04-18T00:11:20.287Z,44.30
2018-04-18T00:13:47.894Z,42.10
2018-04-18T00:16:15.512Z,44.80
2018-04-18T00:18:43.121Z,47.17
2018-04-18T00:21:10.735Z,45.10
2018-04-18T00:23:38.333Z,49.63
2018-04-18T00:26:05.987Z,48.50
2018-04-18T00:28:33.588Z,50.83
2018-04-18T00:31:01.187Z,44.80
2018-04-18T00:33:28.825Z,46.67
2018-04-18T00:35:56.495Z,50.80
2018-04-18T00:38:24.867Z,50.57
2018-04-18T00:40:52.536Z,43.87
2018-04-18T00:43:20.197Z,39.57
2018-04-18T00:45:47.815Z,40.77
2018-04-18T00:48:15.479Z,36.97
2018-04-18T00:50:43.102Z,48.20
2018-04-18T00:53:10.706Z,44.53
2018-04-18T00:55:38.334Z,45.17
2018-04-18T00:58:05.986Z,45.17
2018-04-18T01:00:33.590Z,39.67
2018-04-18T01:03:01.200Z,46.77
2018-04-18T01:05:28.803Z,39.07
2018-04-18T01:07:57.911Z,42.10
2018-04-18T01:10:26.282Z,45.03
2018-04-18T01:12:53.878Z,39.93
2018-04-18T01:15:21.493Z,45.63
2018-04-18T01:17:49.115Z,43.97
2018-04-18T01:20:16.714Z,39.87
2018-04-18T01:22:44.342Z,45.37
2018-04-18T01:25:11.957Z,42.07
2018-04-18T01:27:40.319Z,44.37
2018-04-18T01:30:07.919Z,42.27
2018-04-18T01:32:35.529Z,47.87
2018-04-18T01:35:03.134Z,32.10
2018-04-18T01:37:30.741Z,38.10
2018-04-18T01:39:58.361Z,45.00
2018-04-18T01:42:25.990Z,37.13
2018-04-18T01:44:54.354Z,43.70
2018-04-18T01:47:21.979Z,39.63
2018-04-18T01:49:49.582Z,34.53
2018-04-18T01:52:17.958Z,42.13
2018-04-18T01:54:45.592Z,34.70
2018-04-18T01:57:13.190Z,42.47
2018-04-18T01:59:40.814Z,40.93
2018-04-18T02:02:08.438Z,38.43
2018-04-18T02:04:36.082Z,42.90
2018-04-18T02:07:03.695Z,41.23
2018-04-18T02:09:31.302Z,32.43
2018-04-18T02:11:58.902Z,33.93
2018-04-18T02:14:26.637Z,36.57
2018-04-18T02:16:55.030Z,27.50
2018-04-18T02:19:22.639Z,33.27
2018-04-18T02:21:50.287Z,39.33
2018-04-18T02:24:17.894Z,30.30
2018-04-18T02:26:45.495Z,33.07
2018-04-18T02:29:13.095Z,32.63
2018-04-18T02:31:40.735Z,27.10
2018-04-18T02:34:08.349Z,38.87
2018-04-18T02:36:35.950Z,27.67
2018-04-18T02:39:03.563Z,31.97
2018-04-18T02:41:31.182Z,37.53
2018-04-18T02:43:58.804Z,27.97
2018-04-18T02:46:26.426Z,34.07
2018-04-18T02:48:54.058Z,28.03
2018-04-18T02:51:21.698Z,21.30
2018-04-18T02:53:49.394Z,27.93
2018-04-18T02:56:17.016Z,24.23
2018-04-18T02:58:44.620Z,28.30
2018-04-18T03:01:12.240Z,21.70
2018-04-18T03:03:39.833Z,27.37
2018-04-18T03:06:08.207Z,28.67
2018-04-18T03:08:35.828Z,26.70
2018-04-18T03:11:03.424Z,27.03
2018-04-18T03:13:31.057Z,27.47
2018-04-18T03:15:58.714Z,27.13
2018-04-18T03:18:26.312Z,29.13
2018-04-18T03:20:53.926Z,25.70
2018-04-18T03:23:21.550Z,28.53
2018-04-18T03:25:49.146Z,27.77
2018-04-18T03:28:16.750Z,30.23
2018-04-18T03:30:44.402Z,32.23
2018-04-18T03:33:12.021Z,33.30
2018-04-18T03:35:39.618Z,29.67
2018-04-18T03:38:07.226Z,32.27
2018-04-18T03:40:34.819Z,41.00
2018-04-18T03:43:02.460Z,30.97
2018-04-18T03:45:30.070Z,32.97
2018-04-18T03:47:57.694Z,33.27
2018-04-18T03:50:25.289Z,28.03
2018-04-18T03:52:52.902Z,33.33
2018-04-18T03:55:21.284Z,27.63
2018-04-18T03:57:48.890Z,30.83
2018-04-18T04:00:16.502Z,30.80
2018-04-18T04:02:44.104Z,32.07
2018-04-18T04:05:11.781Z,29.87
2018-04-18T04:07:40.158Z,30.57
2018-04-18T04:10:08.522Z,33.03
2018-04-18T04:12:36.127Z,38.17
2018-04-18T04:15:03.838Z,35.20
2018-04-18T04:20:49.046Z,33.37
2018-04-18T04:23:28.342Z,34.20
2018-04-18T04:25:55.987Z,41.23
2018-04-18T04:28:23.646Z,37.80
2018-04-18T04:30:51.246Z,36.67
2018-04-18T04:33:18.887Z,37.60
2018-04-18T04:35:46.489Z,34.00
2018-04-18T04:38:20.660Z,38.07
2018-04-18T04:40:48.278Z,40.57
2018-04-18T04:43:16.738Z,32.40
2018-04-18T04:45:44.361Z,39.53
2018-04-18T04:48:17.861Z,44.60
2018-04-18T04:50:45.470Z,35.87
2018-04-18T04:53:13.838Z,38.57
2018-04-18T04:55:41.507Z,31.93
2018-04-18T04:58:11.762Z,39.57
2018-04-18T05:00:39.353Z,34.53
2018-04-18T05:03:06.967Z,33.57
2018-04-18T05:05:34.646Z,35.77
2018-04-18T05:08:02.249Z,30.30
2018-04-18T05:10:29.854Z,26.77
2018-04-18T05:12:57.466Z,25.73
2018-04-18T05:15:25.070Z,28.07
2018-04-18T05:17:52.677Z,24.27
2018-04-18T05:20:20.309Z,25.83
2018-04-18T05:22:47.951Z,23.33
2018-04-18T05:25:15.554Z,21.63
2018-04-18T05:27:49.044Z,20.50
2018-04-18T05:30:18.458Z,19.77
2018-04-18T05:32:46.085Z,20.30
2018-04-18T05:35:13.726Z,20.43
2018-04-18T05:37:41.333Z,21.87
2018-04-18T05:40:08.971Z,21.23
2018-04-18T05:42:36.632Z,21.63
2018-04-18T05:45:04.251Z,19.03
2018-04-18T05:47:31.929Z,17.53
2018-04-18T05:50:00.349Z,16.43
2018-04-18T05:52:27.978Z,20.47
2018-04-18T05:54:55.597Z,18.33
2018-04-18T05:57:23.242Z,21.27
2018-04-18T05:59:50.848Z,14.87
2018-04-18T06:02:19.224Z,19.67
2018-04-18T06:04:47.628Z,22.80
2018-04-18T06:07:15.295Z,19.20
2018-04-18T06:09:42.898Z,18.33
2018-04-18T06:12:10.531Z,21.03
2018-04-18T06:14:38.250Z,19.43
2018-04-18T06:17:05.862Z,21.23
2018-04-18T06:19:33.516Z,22.00
2018-04-18T06:22:01.119Z,19.97
2018-04-18T06:24:28.719Z,20.97
2018-04-18T06:26:56.363Z,22.60
2018-04-18T06:29:23.970Z,20.03
2018-04-18T06:31:51.574Z,21.10
2018-04-18T06:34:19.945Z,24.17
2018-04-18T06:36:48.329Z,19.73
2018-04-18T06:39:16.702Z,19.10
2018-04-18T06:41:45.083Z,23.83
2018-04-18T06:44:13.493Z,25.93
2018-04-18T06:46:41.109Z,22.63
2018-04-18T06:49:08.734Z,22.23
2018-04-18T06:51:36.335Z,22.03
2018-04-18T06:54:04.705Z,22.93
2018-04-18T06:56:32.323Z,22.47
2018-04-18T06:58:59.935Z,21.67
2018-04-18T07:01:27.538Z,24.00
2018-04-18T07:03:55.188Z,21.80
2018-04-18T07:06:22.788Z,21.20
2018-04-18T07:08:50.431Z,23.97
2018-04-18T07:11:18.046Z,22.03
2018-04-18T07:13:45.652Z,28.10
2018-04-18T07:16:13.250Z,21.80
2018-04-18T07:18:40.902Z,22.47
2018-04-18T07:21:08.508Z,22.33
2018-04-18T07:23:36.105Z,18.80
2018-04-18T07:26:03.717Z,20.37
2018-04-18T07:28:31.336Z,20.63
2018-04-18T07:30:58.966Z,20.50
2018-04-18T07:33:26.643Z,24.73
2018-04-18T07:35:54.256Z,17.47
2018-04-18T07:38:22.626Z,20.57
2018-04-18T07:40:51.010Z,19.30
2018-04-18T07:43:18.632Z,21.17
2018-04-18T07:45:46.231Z,19.37
2018-04-18T07:48:14.618Z,21.10
2018-04-18T07:50:42.262Z,25.10
2018-04-18T07:53:10.629Z,20.97
2018-04-18T07:55:38.282Z,24.33
2018-04-18T07:58:05.909Z,20.43
2018-04-18T08:00:33.541Z,25.00
2018-04-18T08:03:01.210Z,19.97
2018-04-18T08:05:28.833Z,23.07
2018-04-18T08:07:56.441Z,18.70
2018-04-18T08:10:24.070Z,21.63
2018-04-18T08:12:52.471Z,19.77
2018-04-18T08:15:20.104Z,25.17
2018-04-18T08:17:47.716Z,26.17
2018-04-18T08:20:15.326Z,18.63
2018-04-18T08:22:43.005Z,24.10
2018-04-18T08:25:10.650Z,26.90
2018-04-18T08:27:38.257Z,21.97
2018-04-18T08:30:05.859Z,21.73
2018-04-18T08:32:33.482Z,22.90
2018-04-18T08:35:01.113Z,22.90
2018-04-18T08:37:28.711Z,25.40
2018-04-18T08:39:56.321Z,21.27
2018-04-18T08:42:24.706Z,28.30
2018-04-18T08:44:52.357Z,31.03
2018-04-18T08:47:20.002Z,26.17
2018-04-18T08:49:47.639Z,20.23
2018-04-18T08:52:15.242Z,27.23
2018-04-18T08:54:43.617Z,28.43
2018-04-18T08:57:12.005Z,26.73
2018-04-18T08:59:39.679Z,30.20
2018-04-18T09:02:07.320Z,29.77
2018-04-18T09:04:35.692Z,26.83
2018-04-18T09:07:04.070Z,30.63
2018-04-18T09:09:32.474Z,30.13
2018-04-18T09:12:00.077Z,29.67
2018-04-18T09:14:27.683Z,35.43
2018-04-18T09:16:55.303Z,32.23
2018-04-18T09:19:22.911Z,37.73
2018-04-18T09:21:50.516Z,32.83
2018-04-18T09:24:18.152Z,44.57
2018-04-18T09:26:45.758Z,38.77
2018-04-18T09:29:13.358Z,32.83
2018-04-18T09:31:40.970Z,37.97
2018-04-18T09:34:08.574Z,37.27
2018-04-18T09:36:36.214Z,39.17
2018-04-18T09:39:04.641Z,34.30
2018-04-18T09:41:32.241Z,35.33
2018-04-18T09:44:00.609Z,33.67
2018-04-18T09:46:28.268Z,32.00
2018-04-18T09:48:55.945Z,34.07
2018-04-18T09:51:23.599Z,29.83
2018-04-18T09:53:51.227Z,29.63
2018-04-18T09:56:18.834Z,31.67
2018-04-18T09:58:46.439Z,36.53
2018-04-18T10:01:19.866Z,31.10
2018-04-18T10:04:04.283Z,29.17
2018-04-18T10:06:31.906Z,32.33
2018-04-18T10:09:00.329Z,32.83
2018-04-18T10:11:27.944Z,30.00
2018-04-18T10:13:56.326Z,32.40
2018-04-18T10:16:24.728Z,37.23
2018-04-18T10:18:52.365Z,30.57
2018-04-18T10:21:20.019Z,30.90
2018-04-18T10:23:48.448Z,32.33
2018-04-18T10:26:16.123Z,32.20
2018-04-18T10:28:43.826Z,33.60
2018-04-18T10:31:12.210Z,32.13
2018-04-18T10:33:39.877Z,28.10
2018-04-18T10:36:08.283Z,29.40
2018-04-18T10:38:35.920Z,28.60
2018-04-18T10:41:04.287Z,29.73
2018-04-18T10:43:31.925Z,33.40
2018-04-18T10:45:59.534Z,27.27
2018-04-18T10:48:27.142Z,30.83
2018-04-18T10:50:54.857Z,33.00
2018-04-18T10:53:22.468Z,35.77
2018-04-18T10:55:50.095Z,26.93
2018-04-18T10:58:17.742Z,26.40
2018-04-18T11:00:45.370Z,28.20
2018-04-18T11:03:13.820Z,29.27
2018-04-18T11:05:41.538Z,29.73
2018-04-18T11:08:09.922Z,30.37
2018-04-18T11:10:37.551Z,27.83
2018-04-18T11:13:05.175Z,32.50
2018-04-18T11:15:32.831Z,30.58
2018-04-18T11:18:00.482Z,32.90
2018-04-18T11:20:28.104Z,28.50
2018-04-18T11:22:56.487Z,29.30
2018-04-18T11:25:24.876Z,28.43
2018-04-18T11:27:52.533Z,26.30
2018-04-18T11:30:20.149Z,31.30
2018-04-18T11:32:47.758Z,30.63
2018-04-18T11:35:15.419Z,26.40
2018-04-18T11:37:43.059Z,31.47
2018-04-18T11:40:11.440Z,32.50
2018-04-18T11:42:39.850Z,34.53
2018-04-18T11:45:07.481Z,29.00
2018-04-18T11:47:35.097Z,31.87
2018-04-18T11:50:02.779Z,26.53
2018-04-18T11:52:30.390Z,28.70
2018-04-18T11:54:57.997Z,30.27
2018-04-18T11:57:25.609Z,28.73
2018-04-18T11:59:53.215Z,31.27
2018-04-18T12:02:20.820Z,30.20
2018-04-18T12:04:48.460Z,29.63
2018-04-18T12:07:16.843Z,31.13
2018-04-18T12:09:45.264Z,25.77
2018-04-18T12:12:12.889Z,31.97
2018-04-18T12:14:41.267Z,27.37
2018-04-18T12:17:09.640Z,26.97
2018-04-18T12:19:37.267Z,29.23
2018-04-18T12:22:04.886Z,27.53
2018-04-18T12:24:32.503Z,26.33
2018-04-18T12:27:00.117Z,33.97
2018-04-18T12:29:27.718Z,28.13
2018-04-18T12:31:55.320Z,30.63
2018-04-18T12:34:22.945Z,25.77
2018-04-18T12:36:50.546Z,26.93
2018-04-18T12:39:18.146Z,28.37
2018-04-18T12:41:45.762Z,27.33
2018-04-18T12:44:13.368Z,23.87
2018-04-18T12:46:42.969Z,23.97
2018-04-18T12:49:10.598Z,21.47
2018-04-18T12:51:38.207Z,28.27
2018-04-18T12:54:05.909Z,21.47
2018-04-18T12:56:34.031Z,23.67
2018-04-18T13:02:00.806Z,23.93
2018-04-18T13:04:30.579Z,28.07
2018-04-18T13:07:08.088Z,24.63
2018-04-18T13:09:51.973Z,22.07
2018-04-18T13:12:33.913Z,23.67
2018-04-18T13:15:01.758Z,21.77
2018-04-18T13:20:22.058Z,22.83
2018-04-18T13:22:49.923Z,23.43
2018-04-18T13:25:17.652Z,22.80
2018-04-18T13:27:45.320Z,23.20
2018-04-18T13:30:13.037Z,28.43
2018-04-18T13:32:40.742Z,24.30
2018-04-18T13:35:09.153Z,24.05
2018-04-18T13:37:36.790Z,21.87
2018-04-18T13:40:04.656Z,22.90
2018-04-18T13:42:33.057Z,21.77
2018-04-18T13:45:01.024Z,23.93
2018-04-18T13:47:35.985Z,22.53
2018-04-18T13:50:15.408Z,29.53
2018-04-18T13:55:27.320Z,21.27
2018-04-18T13:57:55.077Z,21.00
2018-04-18T14:00:28.769Z,24.20
2018-04-18T14:02:56.665Z,23.03
2018-04-18T14:08:14.723Z,26.63
2018-04-18T14:10:48.843Z,20.70
2018-04-18T14:13:17.539Z,21.43
2018-04-18T14:15:51.825Z,18.63
2018-04-18T14:18:41.186Z,21.13
2018-04-18T14:21:12.123Z,19.77
2018-04-18T14:29:40.224Z,20.90
2018-04-18T14:38:23.603Z,22.90
2018-04-18T14:41:01.120Z,21.97
2018-04-18T14:43:28.766Z,24.17
2018-04-18T14:45:56.382Z,21.53
2018-04-18T14:48:42.005Z,25.07
2018-04-18T14:51:09.614Z,22.47
2018-04-18T14:53:37.221Z,26.60
2018-04-18T14:56:05.638Z,27.63
2018-04-18T14:58:33.251Z,21.50
2018-04-18T15:01:00.884Z,26.27
2018-04-18T15:03:28.515Z,24.20
2018-04-18T15:05:56.117Z,27.80
2018-04-18T15:08:24.485Z,23.33
2018-04-18T15:10:52.200Z,25.10
2018-04-18T15:13:19.806Z,21.37
2018-04-18T15:15:47.405Z,24.93
2018-04-18T15:18:15.818Z,24.20
2018-04-18T15:20:43.416Z,25.67
2018-04-18T15:23:11.890Z,26.53
2018-04-18T15:25:40.270Z,19.70
2018-04-18T15:28:08.663Z,23.47
2018-04-18T15:30:37.030Z,23.07
2018-04-18T15:33:05.475Z,26.87
2018-04-18T15:35:33.085Z,23.80
2018-04-18T15:38:00.685Z,27.63
2018-04-18T15:40:28.302Z,24.50
2018-04-18T15:42:55.911Z,27.30
2018-04-18T15:45:23.518Z,25.93
2018-04-18T15:47:51.958Z,27.90
2018-04-18T15:50:19.574Z,27.10
2018-04-18T15:52:47.178Z,29.23
2018-04-18T15:55:14.790Z,29.40
2018-04-18T15:57:43.165Z,27.87
2018-04-18T16:00:11.593Z,29.60
2018-04-18T16:02:39.214Z,27.80
2018-04-18T16:05:06.818Z,30.83
2018-04-18T16:07:35.289Z,30.13
2018-04-18T16:10:02.896Z,29.63
2018-04-18T16:12:31.637Z,29.83
2018-04-18T16:14:59.254Z,34.03
2018-04-18T16:17:27.640Z,27.50
2018-04-18T16:19:55.246Z,29.70
2018-04-18T16:22:22.864Z,30.00
2018-04-18T16:24:50.494Z,32.30
2018-04-18T16:27:18.120Z,28.93
2018-04-18T16:29:45.734Z,27.70
2018-04-18T16:32:14.144Z,27.07
2018-04-18T16:34:41.759Z,23.33
2018-04-18T16:37:10.488Z,29.83
2018-04-18T16:39:38.126Z,28.57
2018-04-18T16:42:05.815Z,25.20
2018-04-18T16:44:34.279Z,27.80
2018-04-18T16:47:01.914Z,26.13
2018-04-18T16:49:29.702Z,30.83
2018-04-18T16:51:57.381Z,25.53
2018-04-18T16:54:25.007Z,30.80
2018-04-18T16:56:53.549Z,31.47
2018-04-18T16:59:21.163Z,26.17
2018-04-18T17:01:48.821Z,29.03
2018-04-18T17:04:16.476Z,31.40
2018-04-18T17:06:44.886Z,27.50
2018-04-18T17:09:12.513Z,34.83
2018-04-18T17:11:40.877Z,24.03
2018-04-18T17:14:11.787Z,30.13
2018-04-18T17:16:39.429Z,33.70
2018-04-18T17:19:07.062Z,28.63
2018-04-18T17:21:34.737Z,33.07
2018-04-18T17:24:02.362Z,33.57
2018-04-18T17:26:30.726Z,32.23
2018-04-18T17:28:58.362Z,30.43
2018-04-18T17:31:26.051Z,30.13
2018-04-18T17:33:53.676Z,29.50
2018-04-18T17:36:21.287Z,27.73
2018-04-18T17:38:49.739Z,32.47
2018-04-18T17:41:17.351Z,28.70
2018-04-18T17:43:44.960Z,25.97
2018-04-18T17:46:12.623Z,32.33
2018-04-18T17:48:40.324Z,31.90
2018-04-18T17:51:07.933Z,34.13
2018-04-18T17:53:35.671Z,29.40
2018-04-18T17:56:03.285Z,31.63
2018-04-18T17:58:30.977Z,38.70
2018-04-18T18:00:58.601Z,33.30
2018-04-18T18:03:26.286Z,32.63
2018-04-18T18:05:53.871Z,35.90
2018-04-18T18:08:21.476Z,33.60
2018-04-18T18:10:50.640Z,28.63
2018-04-18T18:13:18.298Z,33.67
2018-04-18T18:15:45.907Z,31.80
2018-04-18T18:18:13.702Z,29.50
2018-04-18T18:20:41.318Z,34.77
2018-04-18T18:23:08.922Z,35.23
2018-04-18T18:25:36.508Z,32.27
2018-04-18T18:28:04.134Z,29.80
2018-04-18T18:30:31.843Z,37.77
2018-04-18T18:32:59.446Z,44.90
2018-04-18T18:35:27.051Z,41.47
2018-04-18T18:37:54.752Z,37.43
2018-04-18T18:40:22.390Z,39.60
2018-04-18T18:42:50.028Z,39.73
2018-04-18T18:45:17.732Z,44.50
2018-04-18T18:47:45.360Z,41.73
2018-04-18T18:50:13.006Z,37.83
2018-04-18T18:52:40.601Z,38.33
2018-04-18T18:55:08.213Z,37.17
2018-04-18T18:57:35.796Z,41.60
2018-04-18T19:00:03.392Z,41.60
2018-04-18T19:02:30.970Z,36.77
2018-04-18T19:04:59.422Z,47.92
2018-04-18T19:07:27.042Z,39.10
2018-04-18T19:09:54.686Z,42.20
2018-04-18T19:12:22.303Z,41.07
2018-04-18T19:14:49.933Z,44.03
2018-04-18T19:17:17.507Z,52.80
2018-04-18T19:19:45.094Z,47.73
2018-04-18T19:22:12.707Z,40.73
2018-04-18T19:24:40.279Z,52.23
2018-04-18T19:27:07.963Z,47.30
2018-04-18T19:29:35.602Z,40.17
2018-04-18T19:32:03.278Z,42.17
2018-04-18T19:34:30.882Z,43.83
2018-04-18T19:36:59.337Z,40.40
2018-04-18T19:39:26.910Z,41.03
2018-04-18T19:41:54.597Z,39.33
2018-04-18T19:44:22.198Z,39.70
2018-04-18T19:46:49.792Z,39.07
2018-04-18T19:49:18.137Z,54.33
2018-04-18T19:51:45.718Z,54.77
2018-04-18T19:54:13.312Z,41.60
2018-04-18T19:56:40.886Z,38.40
2018-04-18T19:59:08.552Z,44.77
2018-04-18T20:01:36.202Z,36.43
2018-04-18T20:04:03.802Z,38.40
2018-04-18T20:06:31.534Z,44.53
2018-04-18T20:08:59.099Z,44.23
2018-04-18T20:11:26.756Z,43.77
2018-04-18T20:13:54.414Z,37.93
2018-04-18T20:16:22.105Z,47.87
2018-04-18T20:18:49.723Z,41.90
2018-04-18T20:21:17.394Z,47.80
2018-04-18T20:23:45.174Z,48.90
2018-04-18T20:26:12.847Z,50.83
2018-04-18T20:28:40.512Z,40.57
2018-04-18T20:31:08.085Z,46.80
2018-04-18T20:33:35.684Z,36.40
2018-04-18T20:36:03.289Z,46.40
2018-04-18T20:38:30.897Z,67.27
2018-04-18T20:40:59.257Z,38.43
2018-04-18T20:43:26.929Z,48.23
2018-04-18T20:45:54.518Z,48.37
2018-04-18T20:48:22.102Z,50.33
2018-04-18T20:50:49.706Z,57.50
2018-04-18T20:53:17.388Z,48.67
2018-04-18T20:55:45.044Z,58.70
2018-04-18T20:58:13.408Z,63.87
2018-04-18T21:00:41.823Z,69.73
2018-04-18T21:03:09.404Z,54.77
2018-04-18T21:05:37.006Z,64.13
2018-04-18T21:08:04.600Z,61.90
2018-04-18T21:10:32.956Z,62.83
2018-04-18T21:13:00.583Z,52.67
2018-04-18T21:15:28.165Z,50.27
2018-04-18T21:17:55.765Z,80.17
2018-04-18T21:20:23.347Z,61.43
2018-04-18T21:22:50.914Z,52.03
2018-04-18T21:25:18.486Z,52.53
2018-04-18T21:27:46.195Z,59.67
2018-04-18T21:30:14.394Z,50.10
2018-04-18T21:32:42.756Z,50.33
2018-04-18T21:35:10.341Z,47.43
2018-04-18T21:37:37.927Z,57.90
2018-04-18T21:40:05.520Z,49.37
2018-04-18T21:42:33.099Z,50.93
2018-04-18T21:45:00.666Z,71.43
2018-04-18T21:47:28.252Z,67.63
2018-04-18T21:49:55.856Z,76.03
2018-04-18T21:52:23.531Z,49.70
2018-04-18T21:54:51.121Z,62.10
2018-04-18T21:57:18.706Z,97.93
2018-04-18T21:59:46.360Z,103.00
2018-04-18T22:02:13.933Z,58.87
2018-04-18T22:04:42.317Z,104.63
2018-04-18T22:07:10.676Z,55.27
2018-04-18T22:09:38.268Z,66.53
2018-04-18T22:12:05.869Z,76.97
2018-04-18T22:14:33.441Z,58.87
2018-04-18T22:17:01.059Z,94.57
2018-04-18T22:19:29.395Z,88.43
2018-04-18T22:21:56.973Z,60.73
2018-04-18T22:24:25.306Z,91.53
2018-04-18T22:26:52.882Z,80.60
2018-04-18T22:29:20.464Z,90.03
2018-04-18T22:31:48.841Z,80.73
2018-04-18T22:34:16.442Z,80.63
2018-04-18T22:36:44.021Z,59.80
2018-04-18T22:39:11.593Z,73.83
2018-04-18T22:41:39.192Z,96.80
2018-04-18T22:44:07.526Z,107.10
2018-04-18T22:46:35.098Z,89.70
2018-04-18T22:49:02.717Z,98.63
2018-04-18T22:51:30.304Z,83.57
2018-04-18T22:53:58.661Z,101.23
2018-04-18T22:56:26.636Z,72.90
2018-04-18T22:58:54.223Z,85.97
2018-04-18T23:01:22.637Z,59.73
2018-04-18T23:03:50.269Z,98.87
2018-04-18T23:06:17.876Z,96.67
2018-04-18T23:08:45.474Z,52.97
2018-04-18T23:11:13.077Z,77.60
2018-04-18T23:13:40.668Z,50.90
2018-04-18T23:16:08.262Z,59.10
2018-04-18T23:18:35.883Z,54.23
2018-04-18T23:21:03.469Z,49.17
2018-04-18T23:23:31.070Z,52.53
2018-04-18T23:25:59.980Z,84.43
2018-04-18T23:28:27.574Z,54.50
2018-04-18T23:30:55.142Z,57.93
2018-04-18T23:33:22.722Z,54.57
2018-04-18T23:35:50.360Z,79.77
2018-04-18T23:38:17.940Z,81.83
2018-04-18T23:40:45.536Z,67.30
2018-04-18T23:43:13.106Z,87.97
2018-04-18T23:45:40.683Z,57.00
2018-04-18T23:48:08.262Z,54.07
2018-04-18T23:50:36.636Z,50.83
2018-04-18T23:53:04.229Z,61.03
2018-04-18T23:55:32.651Z,52.73
2018-04-18T23:58:00.221Z,78.00
